Cidra, PR (00739)

11:52 PM AST on February 10, 2016 (GMT -0400)
Cayey | | Change Station
CLOSE
Current Station
Personal Weather Station
Location: Cayey, PR
Elevation: 1299 ft
Nearby Weather Stations

Elev 1299 ft 18.12 °N, 66.16 °W | Updated 49 seconds ago

Partly Cloudy
Partly Cloudy
67.0 °F
Feels Like 67.0 °F
N
1.0
Wind Variable Wind from NE
Gusts 2.0 mph

Today
High -- | Low -- °F
--% Chance of Precip.
Yesterday
High -- | Low -- °F
Precip. -- in
Pressure 30.12 in
Visibility 10.0 miles
Clouds Few 4500 ft
Dew Point 41 °F
Humidity 39%
Rainfall 0.00 in
Snow Depth Not available.
6:54 AM 6:23 PM
Waxing Crescent, 9% visible
METAR TJSJ 110256Z 00000KT 10SM FEW045 26/21 A3013 RMK AO2 SLP200 T02560211 51011
Pressure 30.12 in
Visibility 10.0 miles
Clouds Few 4500 ft
Dew Point 41 °F
Humidity 39%
Rainfall 0.00 in
Snow Depth Not available.
6:54 AM 6:23 PM
Waxing Crescent, 9% visible
METAR TJSJ 110256Z 00000KT 10SM FEW045 26/21 A3013 RMK AO2 SLP200 T02560211 51011

10-Day Weather Forecast

Almanac

Astronomy

Feb. 10, 2016 Rise Set
Actual Time
Civil Twilight
Nautical Twilight
Astronomical Twilight
Moon
Length of Visible Light
Length of Day
Tomorrow will be .
, % of the Moon is Illuminated

Today's Extremes

State Highs State Lows

Community

WunderPhotos

Upload Photos

1,892,000 photos uploaded!

WunderBlog® & News

Nearby

Air Quality

  Air Quality AQ Index Pollutant
Not available.

Snow Depth

Station Depth Elevation

Earthquake Activity

City Distance Mag. Time & Date
Minimum magnitude displayed is 2.5.

Coastal Water Temperatures

Place Temperature

Stations

Nearby Weather Stations

Station Location Temp. Windchill Dew Point Humidity Wind Precip. Elev Updated Type
                   

Watches & Warnings

There are currently no watches in effect.